Time;durP1;ratioP1;P1;durP2;ratioP2;P2;SDS_P1;SDS_P2;PMS_P1;PMS_P2;Temp;Humidity;BMP_temperature;BMP_pressure;BME280_temperature;BME280_humidity;BME280_pressure;Samples;Min_cycle;Max_cycle;Signal;HPM_P1;HPM_P2
2024/01/28 00:01:36;;;;;;;20.70;6.65;;;;;;;;;;4983203;28;20034;-63
2024/01/28 00:04:02;;;;;;;17.33;6.70;;;;;;;;;;4982578;28;21930;-63
2024/01/28 00:06:28;;;;;;;20.05;7.13;;;;;;;;;;4982658;28;20045;-63
2024/01/28 00:08:54;;;;;;;19.13;7.47;;;;;;;;;;4982887;28;20439;-63
2024/01/28 00:11:21;;;;;;;18.88;6.20;;;;;;;;;;4982933;28;20715;-63
2024/01/28 00:13:47;;;;;;;19.75;7.28;;;;;;;;;;4982584;28;21395;-63
2024/01/28 00:16:20;;;;;;;18.63;7.35;;;;;;;;;;4983018;28;22061;-63
2024/01/28 00:18:46;;;;;;;20.08;7.20;;;;;;;;;;4982615;28;20026;-63
2024/01/28 00:21:12;;;;;;;20.30;7.45;;;;;;;;;;4980590;28;20062;-63
2024/01/28 00:23:38;;;;;;;25.15;8.02;;;;;;;;;;4982769;28;20494;-63
2024/01/28 00:26:04;;;;;;;18.88;7.80;;;;;;;;;;4982713;28;21128;-63
2024/01/28 00:28:31;;;;;;;21.70;6.47;;;;;;;;;;4982753;28;20046;-63
2024/01/28 00:30:57;;;;;;;22.70;6.78;;;;;;;;;;4982597;28;20034;-63
2024/01/28 00:33:23;;;;;;;19.25;7.00;;;;;;;;;;4982627;28;20490;-63
2024/01/28 00:35:49;;;;;;;18.85;6.25;;;;;;;;;;4981541;28;20045;-63
2024/01/28 00:38:15;;;;;;;17.88;6.78;;;;;;;;;;4982045;28;20026;-63
2024/01/28 00:40:41;;;;;;;26.75;8.48;;;;;;;;;;4982149;28;20033;-63
2024/01/28 00:43:07;;;;;;;17.45;6.65;;;;;;;;;;4982487;28;20041;-63
2024/01/28 00:45:34;;;;;;;14.63;6.03;;;;;;;;;;4982186;28;21098;-63
2024/01/28 00:48:00;;;;;;;17.02;6.97;;;;;;;;;;4982685;28;20034;-64
2024/01/28 00:50:26;;;;;;;20.45;7.35;;;;;;;;;;4981396;28;20034;-63
2024/01/28 00:52:52;;;;;;;19.60;8.02;;;;;;;;;;4981942;28;20072;-64
2024/01/28 00:55:18;;;;;;;18.95;6.97;;;;;;;;;;4981937;28;20033;-63
2024/01/28 00:57:44;;;;;;;22.05;7.15;;;;;;;;;;4981990;28;20069;-63
2024/01/28 01:00:10;;;;;;;17.50;6.72;;;;;;;;;;4981589;28;20046;-63
2024/01/28 01:02:36;;;;;;;17.42;6.97;;;;;;;;;;4981883;28;20033;-63
2024/01/28 01:05:02;;;;;;;20.80;6.80;;;;;;;;;;4982018;28;20045;-63
2024/01/28 01:07:29;;;;;;;18.23;7.55;;;;;;;;;;4979883;28;20129;-63
2024/01/28 01:09:55;;;;;;;15.05;7.05;;;;;;;;;;4981123;28;20489;-63
2024/01/28 01:12:22;;;;;;;19.75;7.47;;;;;;;;;;4981854;28;20164;-63
2024/01/28 01:14:48;;;;;;;24.25;7.85;;;;;;;;;;4981972;28;20038;-63
2024/01/28 01:17:14;;;;;;;19.63;7.15;;;;;;;;;;4981576;28;20029;-63
2024/01/28 01:19:41;;;;;;;19.48;7.97;;;;;;;;;;4981530;28;20053;-63
2024/01/28 01:22:07;;;;;;;16.77;6.47;;;;;;;;;;4982270;28;20056;-63
2024/01/28 01:24:33;;;;;;;16.75;7.38;;;;;;;;;;4981706;28;20683;-63
2024/01/28 01:26:59;;;;;;;15.95;6.82;;;;;;;;;;4960996;28;20038;-63
2024/01/28 01:29:25;;;;;;;20.42;6.28;;;;;;;;;;4981825;28;20514;-63
2024/01/28 01:31:51;;;;;;;20.48;7.45;;;;;;;;;;4982078;28;20425;-63
2024/01/28 01:34:17;;;;;;;18.58;6.32;;;;;;;;;;4981657;28;20171;-63
2024/01/28 01:36:44;;;;;;;17.20;6.40;;;;;;;;;;4982071;28;21897;-63
2024/01/28 01:39:10;;;;;;;17.38;7.05;;;;;;;;;;4981476;28;20054;-63
2024/01/28 01:41:36;;;;;;;16.30;6.53;;;;;;;;;;4981181;28;20041;-63
2024/01/28 01:44:02;;;;;;;14.63;5.60;;;;;;;;;;4981509;28;20048;-63
2024/01/28 01:46:30;;;;;;;16.20;6.43;;;;;;;;;;4981548;28;20030;-63
2024/01/28 01:48:56;;;;;;;15.10;6.50;;;;;;;;;;4981866;28;20049;-63
2024/01/28 01:51:23;;;;;;;16.52;5.78;;;;;;;;;;4981404;28;20073;-63
2024/01/28 01:53:49;;;;;;;17.50;6.70;;;;;;;;;;4981489;28;20043;-63
2024/01/28 01:56:15;;;;;;;19.00;5.47;;;;;;;;;;4980577;28;20045;-63
2024/01/28 01:58:43;;;;;;;15.82;6.35;;;;;;;;;;4980718;28;20517;-63
2024/01/28 02:01:09;;;;;;;14.82;5.97;;;;;;;;;;4981919;28;20034;-63
2024/01/28 02:03:35;;;;;;;13.07;6.05;;;;;;;;;;4981518;28;20037;-63
2024/01/28 02:06:01;;;;;;;15.88;5.97;;;;;;;;;;4981948;28;20132;-63
2024/01/28 02:08:28;;;;;;;16.65;6.97;;;;;;;;;;4981508;28;20026;-63
2024/01/28 02:10:54;;;;;;;18.58;6.22;;;;;;;;;;4982133;28;20049;-63
2024/01/28 02:13:21;;;;;;;13.05;6.03;;;;;;;;;;4981530;28;20042;-63
2024/01/28 02:15:47;;;;;;;15.40;5.63;;;;;;;;;;4980950;28;20766;-63
2024/01/28 02:18:13;;;;;;;13.32;5.85;;;;;;;;;;4981045;28;20404;-63
2024/01/28 02:20:39;;;;;;;15.90;6.13;;;;;;;;;;4983705;28;20034;-63
2024/01/28 02:23:05;;;;;;;13.93;5.60;;;;;;;;;;4986140;28;20043;-63
2024/01/28 02:25:33;;;;;;;17.17;5.57;;;;;;;;;;4985708;28;20057;-63
2024/01/28 02:27:59;;;;;;;17.20;5.30;;;;;;;;;;4981908;28;20054;-63
2024/01/28 02:30:25;;;;;;;17.30;6.07;;;;;;;;;;4980271;28;20124;-63
2024/01/28 02:32:51;;;;;;;13.38;6.18;;;;;;;;;;4980207;28;20023;-63
2024/01/28 02:35:18;;;;;;;15.80;5.72;;;;;;;;;;4981107;28;20087;-63
2024/01/28 02:37:44;;;;;;;17.27;5.25;;;;;;;;;;4980408;28;20034;-63
2024/01/28 02:40:11;;;;;;;14.95;5.60;;;;;;;;;;4980012;28;20390;-63
2024/01/28 02:42:37;;;;;;;14.65;6.32;;;;;;;;;;4979571;28;20044;-63
2024/01/28 02:45:03;;;;;;;15.25;6.13;;;;;;;;;;4979656;28;20067;-63
2024/01/28 02:47:29;;;;;;;14.25;5.93;;;;;;;;;;4979989;28;20053;-63
2024/01/28 02:49:55;;;;;;;18.63;6.75;;;;;;;;;;4979845;28;20054;-63
2024/01/28 02:52:21;;;;;;;15.75;6.97;;;;;;;;;;4979644;28;20045;-63
2024/01/28 02:54:47;;;;;;;17.55;6.35;;;;;;;;;;4979954;28;20123;-63
2024/01/28 02:57:13;;;;;;;17.08;6.25;;;;;;;;;;4980792;28;20045;-63
2024/01/28 02:59:39;;;;;;;17.45;6.35;;;;;;;;;;4979410;28;20037;-63
2024/01/28 03:02:05;;;;;;;17.88;6.43;;;;;;;;;;4979565;28;20043;-63
2024/01/28 03:04:36;;;;;;;15.50;6.35;;;;;;;;;;4977537;28;20084;-63
2024/01/28 03:07:02;;;;;;;16.90;5.95;;;;;;;;;;4979646;28;20045;-63
2024/01/28 03:09:28;;;;;;;17.83;6.97;;;;;;;;;;4963190;28;20822;-63
2024/01/28 03:11:54;;;;;;;18.63;6.95;;;;;;;;;;4979995;28;21347;-63
2024/01/28 03:14:20;;;;;;;20.10;7.07;;;;;;;;;;4978336;28;20488;-63
2024/01/28 03:16:48;;;;;;;17.02;7.18;;;;;;;;;;4979393;28;20030;-63
2024/01/28 03:19:14;;;;;;;20.60;7.47;;;;;;;;;;4977016;28;21742;-63
2024/01/28 03:21:40;;;;;;;17.10;7.22;;;;;;;;;;4979262;28;20034;-63
2024/01/28 03:24:06;;;;;;;15.68;7.25;;;;;;;;;;4978185;28;20050;-63
2024/01/28 03:26:37;;;;;;;21.15;7.55;;;;;;;;;;4979284;28;20878;-63
2024/01/28 03:29:04;;;;;;;21.30;7.15;;;;;;;;;;4977523;28;20053;-63
2024/01/28 03:31:30;;;;;;;21.17;7.57;;;;;;;;;;4976782;28;20038;-63
2024/01/28 03:33:57;;;;;;;18.38;7.10;;;;;;;;;;4976284;28;20756;-63
2024/01/28 03:36:23;;;;;;;17.58;7.43;;;;;;;;;;4977678;28;20106;-63
2024/01/28 03:38:49;;;;;;;21.23;7.30;;;;;;;;;;4977709;28;20037;-63
2024/01/28 03:41:16;;;;;;;23.25;7.25;;;;;;;;;;4976914;28;20543;-63
2024/01/28 03:43:48;;;;;;;22.33;8.68;;;;;;;;;;4979693;28;20702;-63
2024/01/28 03:46:14;;;;;;;21.70;7.32;;;;;;;;;;4978545;28;20030;-63
2024/01/28 03:48:40;;;;;;;14.32;7.30;;;;;;;;;;4978908;28;20037;-63
2024/01/28 03:51:06;;;;;;;17.40;7.72;;;;;;;;;;4977616;28;20077;-63
2024/01/28 03:53:33;;;;;;;21.30;6.88;;;;;;;;;;4979716;28;20034;-63
2024/01/28 03:55:59;;;;;;;17.70;7.13;;;;;;;;;;4977079;28;20486;-63
2024/01/28 03:58:25;;;;;;;13.93;6.50;;;;;;;;;;4979926;28;20057;-63
2024/01/28 04:00:51;;;;;;;17.63;7.55;;;;;;;;;;4977735;28;20036;-63
2024/01/28 04:03:17;;;;;;;17.20;7.68;;;;;;;;;;4979469;28;20901;-63
2024/01/28 04:05:43;;;;;;;15.68;6.30;;;;;;;;;;4977900;28;20498;-63
2024/01/28 04:08:10;;;;;;;13.40;6.43;;;;;;;;;;4977429;28;20038;-63
2024/01/28 04:10:36;;;;;;;21.48;7.82;;;;;;;;;;4978445;28;20149;-63
2024/01/28 04:13:02;;;;;;;21.70;7.50;;;;;;;;;;4977688;28;20031;-63
2024/01/28 04:15:28;;;;;;;16.42;6.13;;;;;;;;;;4979351;28;20038;-63
2024/01/28 04:17:54;;;;;;;14.77;6.80;;;;;;;;;;4977500;28;20042;-63
2024/01/28 04:20:20;;;;;;;18.58;6.18;;;;;;;;;;4978668;28;20504;-63
2024/01/28 04:22:46;;;;;;;17.23;6.97;;;;;;;;;;4977419;28;20103;-63
2024/01/28 04:25:13;;;;;;;14.80;6.05;;;;;;;;;;4978069;28;20085;-63
2024/01/28 04:27:39;;;;;;;18.17;6.65;;;;;;;;;;4978061;28;20124;-63
2024/01/28 04:30:06;;;;;;;19.10;6.70;;;;;;;;;;4979011;28;20038;-63
2024/01/28 04:32:32;;;;;;;15.43;7.13;;;;;;;;;;4977600;28;20038;-63
2024/01/28 04:34:58;;;;;;;15.77;6.60;;;;;;;;;;4978956;28;20042;-63
2024/01/28 04:37:26;;;;;;;14.80;6.43;;;;;;;;;;4977488;28;20044;-63
2024/01/28 04:39:52;;;;;;;18.25;7.10;;;;;;;;;;4978468;28;20043;-63
2024/01/28 04:42:22;;;;;;;17.15;6.32;;;;;;;;;;4977068;28;20152;-63
2024/01/28 04:44:48;;;;;;;14.48;6.65;;;;;;;;;;4978871;28;20149;-63
2024/01/28 04:47:14;;;;;;;18.75;6.05;;;;;;;;;;4977862;28;20045;-63
2024/01/28 04:49:40;;;;;;;13.15;5.80;;;;;;;;;;4977030;28;20498;-64
2024/01/28 04:52:06;;;;;;;16.98;6.90;;;;;;;;;;4976966;28;20045;-63
2024/01/28 04:54:33;;;;;;;15.93;6.63;;;;;;;;;;4977587;28;20375;-63
2024/01/28 04:57:01;;;;;;;16.75;7.07;;;;;;;;;;4978187;28;20224;-63
2024/01/28 04:59:27;;;;;;;17.83;7.10;;;;;;;;;;4977076;28;20037;-63
2024/01/28 05:01:53;;;;;;;19.25;6.88;;;;;;;;;;4977273;28;20046;-63
2024/01/28 05:04:19;;;;;;;16.20;6.28;;;;;;;;;;4975779;28;20137;-63
2024/01/28 05:06:45;;;;;;;13.07;6.50;;;;;;;;;;4977950;28;20236;-64
2024/01/28 05:09:12;;;;;;;18.27;6.32;;;;;;;;;;4977652;28;20038;-63
2024/01/28 05:11:38;;;;;;;16.40;5.85;;;;;;;;;;4977483;28;20042;-63
2024/01/28 05:14:04;;;;;;;17.27;6.20;;;;;;;;;;4975434;28;20034;-63
2024/01/28 05:16:31;;;;;;;17.20;5.97;;;;;;;;;;4976970;28;20089;-63
2024/01/28 05:18:57;;;;;;;20.92;7.18;;;;;;;;;;4976747;28;21892;-63
2024/01/28 05:21:23;;;;;;;15.82;6.50;;;;;;;;;;4963626;28;20630;-63
2024/01/28 05:23:50;;;;;;;15.40;6.93;;;;;;;;;;4976652;28;20038;-63
2024/01/28 05:26:20;;;;;;;16.67;6.22;;;;;;;;;;4978014;28;20042;-63
2024/01/28 05:28:46;;;;;;;13.15;6.03;;;;;;;;;;4977553;28;20046;-63
2024/01/28 05:31:12;;;;;;;17.75;6.47;;;;;;;;;;4976311;28;20042;-63
2024/01/28 05:33:39;;;;;;;13.98;6.53;;;;;;;;;;4958184;28;20084;-63
2024/01/28 05:36:11;;;;;;;17.85;6.20;;;;;;;;;;4977728;28;20034;-63
2024/01/28 05:38:37;;;;;;;19.70;6.53;;;;;;;;;;4977679;28;20456;-63
2024/01/28 05:41:03;;;;;;;16.20;6.03;;;;;;;;;;4961524;28;21327;-63
2024/01/28 05:43:29;;;;;;;19.50;7.38;;;;;;;;;;4959700;28;20038;-63
2024/01/28 05:45:55;;;;;;;16.23;7.35;;;;;;;;;;4976252;28;20033;-63
2024/01/28 05:48:21;;;;;;;16.58;6.78;;;;;;;;;;4976631;28;20030;-63
2024/01/28 05:50:47;;;;;;;18.85;8.07;;;;;;;;;;4976529;28;20067;-63
2024/01/28 05:53:13;;;;;;;19.05;6.38;;;;;;;;;;4977053;28;20036;-63
2024/01/28 05:55:39;;;;;;;15.48;6.97;;;;;;;;;;4975375;28;20034;-63
2024/01/28 05:58:05;;;;;;;17.20;6.30;;;;;;;;;;4977637;28;20034;-63
2024/01/28 06:00:31;;;;;;;20.35;6.53;;;;;;;;;;4960876;28;20042;-63
2024/01/28 06:02:57;;;;;;;18.92;6.45;;;;;;;;;;4976115;28;20035;-63
2024/01/28 06:05:23;;;;;;;16.30;6.03;;;;;;;;;;4958925;28;20041;-63
2024/01/28 06:07:49;;;;;;;16.58;6.30;;;;;;;;;;4975802;28;20042;-63
2024/01/28 06:10:15;;;;;;;16.25;5.72;;;;;;;;;;4976215;28;20037;-63
2024/01/28 06:12:42;;;;;;;15.07;6.55;;;;;;;;;;4977874;28;20522;-63
2024/01/28 06:15:08;;;;;;;13.32;5.82;;;;;;;;;;4976857;28;20441;-63
2024/01/28 06:17:38;;;;;;;15.30;6.32;;;;;;;;;;4976218;28;20030;-63
2024/01/28 06:20:05;;;;;;;21.20;6.47;;;;;;;;;;4976359;28;20034;-63
2024/01/28 06:22:31;;;;;;;15.98;6.40;;;;;;;;;;4975694;28;20045;-63
2024/01/28 06:24:58;;;;;;;14.00;6.00;;;;;;;;;;4976897;28;20046;-63
2024/01/28 06:27:24;;;;;;;17.80;6.60;;;;;;;;;;4975353;28;20057;-63
2024/01/28 06:29:50;;;;;;;15.75;6.50;;;;;;;;;;4977377;28;20044;-63
2024/01/28 06:32:17;;;;;;;13.70;6.65;;;;;;;;;;4974959;28;20046;-63
2024/01/28 06:34:44;;;;;;;16.67;6.68;;;;;;;;;;4974809;28;20037;-63
2024/01/28 06:37:10;;;;;;;17.63;6.30;;;;;;;;;;4975952;28;20081;-63
2024/01/28 06:39:36;;;;;;;14.25;5.85;;;;;;;;;;4975883;28;20045;-63
2024/01/28 06:42:02;;;;;;;12.35;5.60;;;;;;;;;;4976788;28;20394;-63
2024/01/28 06:44:28;;;;;;;17.60;6.47;;;;;;;;;;4975029;28;20069;-63
2024/01/28 06:46:54;;;;;;;13.95;6.15;;;;;;;;;;4978088;28;20069;-63
2024/01/28 06:49:20;;;;;;;17.35;6.43;;;;;;;;;;4975534;28;20078;-63
2024/01/28 06:51:46;;;;;;;10.25;5.57;;;;;;;;;;4977116;28;20064;-63
2024/01/28 06:54:12;;;;;;;15.20;5.95;;;;;;;;;;4976393;28;20711;-63
2024/01/28 06:56:38;;;;;;;17.75;5.93;;;;;;;;;;4977404;28;20485;-63
2024/01/28 06:59:04;;;;;;;12.32;5.70;;;;;;;;;;4976136;28;20135;-63
2024/01/28 07:01:30;;;;;;;12.77;6.20;;;;;;;;;;4977861;28;20618;-63
2024/01/28 07:03:56;;;;;;;15.32;6.15;;;;;;;;;;4963248;28;20670;-63
2024/01/28 07:06:22;;;;;;;12.60;5.18;;;;;;;;;;4978621;28;20583;-63
2024/01/28 07:08:49;;;;;;;14.15;5.30;;;;;;;;;;4980831;28;20042;-63
2024/01/28 07:11:15;;;;;;;12.68;5.40;;;;;;;;;;4980154;28;20038;-63
2024/01/28 07:13:41;;;;;;;11.07;5.28;;;;;;;;;;4979736;28;20127;-63
2024/01/28 07:16:09;;;;;;;13.40;6.03;;;;;;;;;;4980050;28;20244;-63
2024/01/28 07:18:35;;;;;;;14.32;5.40;;;;;;;;;;4978404;28;20669;-63
2024/01/28 07:21:02;;;;;;;16.40;6.32;;;;;;;;;;4977510;28;20110;-63
2024/01/28 07:23:28;;;;;;;16.02;5.90;;;;;;;;;;4979164;28;20955;-63
2024/01/28 07:25:54;;;;;;;12.68;4.97;;;;;;;;;;4977147;28;20119;-63
2024/01/28 07:28:20;;;;;;;17.27;6.05;;;;;;;;;;4980229;28;20100;-63
2024/01/28 07:30:46;;;;;;;19.77;5.85;;;;;;;;;;4977646;28;20065;-63
2024/01/28 07:33:13;;;;;;;13.85;5.45;;;;;;;;;;4979608;28;20042;-63
2024/01/28 07:35:39;;;;;;;15.13;5.20;;;;;;;;;;4964906;28;20026;-63
2024/01/28 07:38:05;;;;;;;18.50;5.85;;;;;;;;;;4980053;28;20049;-63
2024/01/28 07:40:31;;;;;;;16.48;4.93;;;;;;;;;;4978668;28;20091;-63
2024/01/28 07:42:57;;;;;;;13.98;5.88;;;;;;;;;;4980337;28;20093;-63
2024/01/28 07:45:23;;;;;;;9.32;5.07;;;;;;;;;;4979040;28;20030;-63
2024/01/28 07:47:49;;;;;;;12.90;5.00;;;;;;;;;;4980756;28;20049;-63
2024/01/28 07:50:16;;;;;;;19.85;6.10;;;;;;;;;;4979230;28;20048;-63
2024/01/28 07:52:43;;;;;;;14.25;5.68;;;;;;;;;;4978049;28;20144;-63
2024/01/28 07:55:09;;;;;;;15.82;5.93;;;;;;;;;;4979333;28;20045;-63
2024/01/28 07:57:35;;;;;;;14.60;5.97;;;;;;;;;;4976763;28;20144;-63
2024/01/28 08:00:01;;;;;;;12.05;5.50;;;;;;;;;;4979872;28;20121;-63
2024/01/28 08:02:27;;;;;;;13.07;5.05;;;;;;;;;;4978283;28;20092;-63
2024/01/28 08:04:54;;;;;;;13.77;5.15;;;;;;;;;;4979877;28;20034;-63
2024/01/28 08:07:20;;;;;;;14.02;5.45;;;;;;;;;;4978434;28;20047;-63
2024/01/28 08:09:46;;;;;;;15.90;6.20;;;;;;;;;;4979119;28;20066;-63
2024/01/28 08:12:13;;;;;;;16.25;5.95;;;;;;;;;;4978881;28;20088;-63
2024/01/28 08:14:39;;;;;;;11.63;5.35;;;;;;;;;;4978012;28;20045;-63
2024/01/28 08:17:05;;;;;;;14.32;5.00;;;;;;;;;;4979489;28;20113;-63
2024/01/28 08:19:31;;;;;;;16.48;5.35;;;;;;;;;;4978694;28;20494;-63
2024/01/28 08:21:58;;;;;;;15.13;6.07;;;;;;;;;;4979994;28;20081;-63
2024/01/28 08:24:24;;;;;;;14.68;5.18;;;;;;;;;;4978761;28;20070;-63
2024/01/28 08:26:50;;;;;;;14.38;5.53;;;;;;;;;;4979687;28;20049;-63
2024/01/28 08:29:16;;;;;;;11.20;5.28;;;;;;;;;;4978589;28;20432;-63
2024/01/28 08:31:43;;;;;;;11.25;4.57;;;;;;;;;;4978538;28;20042;-64
2024/01/28 08:34:09;;;;;;;14.10;5.15;;;;;;;;;;4978872;28;20034;-64
2024/01/28 08:36:35;;;;;;;11.13;4.60;;;;;;;;;;4979188;28;20042;-63
2024/01/28 08:39:03;;;;;;;13.32;4.93;;;;;;;;;;4978493;28;20058;-64
2024/01/28 08:41:29;;;;;;;10.95;4.60;;;;;;;;;;4978072;28;20095;-64
2024/01/28 08:43:56;;;;;;;12.30;4.75;;;;;;;;;;4976762;28;20687;-64
2024/01/28 08:46:22;;;;;;;8.93;4.47;;;;;;;;;;4977103;28;21666;-64
2024/01/28 08:48:48;;;;;;;13.63;4.82;;;;;;;;;;4978477;28;20026;-63
2024/01/28 08:51:14;;;;;;;14.25;5.22;;;;;;;;;;4976627;28;20072;-63
2024/01/28 08:53:42;;;;;;;14.73;5.93;;;;;;;;;;4978751;28;20034;-63
2024/01/28 08:56:08;;;;;;;11.77;4.70;;;;;;;;;;4977841;28;20041;-63
2024/01/28 08:58:34;;;;;;;10.38;4.57;;;;;;;;;;4978755;28;20429;-63
2024/01/28 09:01:00;;;;;;;16.67;4.90;;;;;;;;;;4976402;28;20034;-63
2024/01/28 09:03:26;;;;;;;13.52;4.80;;;;;;;;;;4977518;28;20033;-63
2024/01/28 09:05:52;;;;;;;14.00;4.88;;;;;;;;;;4960795;28;20035;-64
2024/01/28 09:08:18;;;;;;;10.00;4.18;;;;;;;;;;4977911;28;20035;-63
2024/01/28 09:10:44;;;;;;;14.27;5.10;;;;;;;;;;4977989;28;20029;-63
2024/01/28 09:13:10;;;;;;;15.20;5.07;;;;;;;;;;4977610;28;20129;-63
2024/01/28 09:15:36;;;;;;;12.38;4.88;;;;;;;;;;4977582;28;20057;-63
2024/01/28 09:18:02;;;;;;;13.80;5.32;;;;;;;;;;4978044;28;20076;-63
2024/01/28 09:20:29;;;;;;;14.82;5.47;;;;;;;;;;4976232;28;20034;-63
2024/01/28 09:22:55;;;;;;;14.07;4.72;;;;;;;;;;4978569;28;20037;-63
2024/01/28 09:25:21;;;;;;;13.18;4.25;;;;;;;;;;4975377;28;20033;-63
2024/01/28 09:27:48;;;;;;;12.60;5.25;;;;;;;;;;4975867;28;20050;-63
2024/01/28 09:30:14;;;;;;;12.02;3.95;;;;;;;;;;4975870;28;20033;-63
2024/01/28 09:32:41;;;;;;;13.23;4.65;;;;;;;;;;4977692;28;20045;-64
2024/01/28 09:35:08;;;;;;;14.95;4.85;;;;;;;;;;4976544;28;20030;-63
2024/01/28 09:37:34;;;;;;;11.50;4.75;;;;;;;;;;4975852;28;20026;-63
2024/01/28 09:40:00;;;;;;;12.27;4.88;;;;;;;;;;4975958;28;20069;-63
2024/01/28 09:42:31;;;;;;;10.52;4.47;;;;;;;;;;4976691;28;20038;-64
2024/01/28 09:44:59;;;;;;;11.20;4.10;;;;;;;;;;4977268;28;20037;-64
2024/01/28 09:47:25;;;;;;;11.32;4.13;;;;;;;;;;4975871;28;20030;-64
2024/01/28 09:49:52;;;;;;;10.73;4.82;;;;;;;;;;4977666;28;20041;-64
2024/01/28 09:52:18;;;;;;;13.35;4.85;;;;;;;;;;4974494;28;20035;-64
2024/01/28 09:54:50;;;;;;;12.23;4.88;;;;;;;;;;4977866;28;20033;-64
2024/01/28 09:57:16;;;;;;;15.38;5.80;;;;;;;;;;4976873;28;20041;-64
2024/01/28 09:59:43;;;;;;;10.52;4.45;;;;;;;;;;4977193;28;20037;-64
2024/01/28 10:02:09;;;;;;;17.25;6.47;;;;;;;;;;4975807;28;20494;-64
2024/01/28 10:04:36;;;;;;;12.98;5.40;;;;;;;;;;4978039;28;20044;-64
2024/01/28 10:07:02;;;;;;;11.95;4.25;;;;;;;;;;4975491;28;20029;-64
2024/01/28 10:09:29;;;;;;;12.13;4.30;;;;;;;;;;4975648;28;20613;-64
2024/01/28 10:11:59;;;;;;;10.85;3.67;;;;;;;;;;4974975;28;20034;-64
2024/01/28 10:14:25;;;;;;;12.10;3.58;;;;;;;;;;4976598;28;20521;-64
2024/01/28 10:16:51;;;;;;;10.10;3.58;;;;;;;;;;4957332;28;20037;-64
2024/01/28 10:19:18;;;;;;;11.18;3.67;;;;;;;;;;4974409;28;20521;-64
2024/01/28 10:21:44;;;;;;;11.65;3.25;;;;;;;;;;4975436;28;20097;-64
2024/01/28 10:24:11;;;;;;;13.90;4.32;;;;;;;;;;4976006;28;20414;-64
2024/01/28 10:26:37;;;;;;;9.40;3.10;;;;;;;;;;4975309;28;20030;-64
2024/01/28 10:29:03;;;;;;;10.48;4.45;;;;;;;;;;4975931;28;21745;-64
2024/01/28 10:31:30;;;;;;;8.95;3.67;;;;;;;;;;4976131;28;20406;-64
2024/01/28 10:33:56;;;;;;;9.18;3.08;;;;;;;;;;4975542;28;20041;-64
2024/01/28 10:36:23;;;;;;;8.00;2.78;;;;;;;;;;4959087;28;20026;-64
2024/01/28 10:38:54;;;;;;;8.18;2.80;;;;;;;;;;4976046;28;20105;-65
2024/01/28 10:41:21;;;;;;;7.35;2.80;;;;;;;;;;4961315;28;20050;-65
2024/01/28 10:43:58;;;;;;;8.75;2.60;;;;;;;;;;4978894;28;20041;-64
2024/01/28 10:46:34;;;;;;;9.85;3.30;;;;;;;;;;4978331;28;20116;-64
2024/01/28 10:49:03;;;;;;;8.50;3.03;;;;;;;;;;4977597;28;20038;-65
2024/01/28 10:51:30;;;;;;;9.00;2.78;;;;;;;;;;4979689;28;20076;-65
2024/01/28 10:53:56;;;;;;;9.32;2.60;;;;;;;;;;4979324;28;20120;-65
2024/01/28 10:56:22;;;;;;;9.48;2.80;;;;;;;;;;4979435;28;20037;-65
2024/01/28 10:58:50;;;;;;;7.68;2.47;;;;;;;;;;4979421;28;20041;-64
2024/01/28 11:01:17;;;;;;;9.98;2.85;;;;;;;;;;4981555;28;20030;-64
2024/01/28 11:03:43;;;;;;;7.20;2.75;;;;;;;;;;4980290;28;20065;-64
2024/01/28 11:06:09;;;;;;;7.57;2.90;;;;;;;;;;4979306;28;20081;-64
2024/01/28 11:08:35;;;;;;;8.00;2.40;;;;;;;;;;4963161;28;20037;-64
2024/01/28 11:11:01;;;;;;;9.02;2.58;;;;;;;;;;4980303;28;20145;-64
2024/01/28 11:13:28;;;;;;;9.20;2.88;;;;;;;;;;4979095;28;20116;-64
2024/01/28 11:15:57;;;;;;;9.32;2.72;;;;;;;;;;4979384;28;20035;-65
2024/01/28 11:18:29;;;;;;;7.68;2.40;;;;;;;;;;4979130;28;20068;-64
2024/01/28 11:20:55;;;;;;;11.33;2.50;;;;;;;;;;4979222;28;20030;-64
2024/01/28 11:23:21;;;;;;;8.27;2.50;;;;;;;;;;4979007;28;20117;-65
2024/01/28 11:25:47;;;;;;;8.50;3.00;;;;;;;;;;4979359;28;20030;-65
2024/01/28 11:28:15;;;;;;;7.03;2.80;;;;;;;;;;4980142;28;20038;-65
2024/01/28 11:30:41;;;;;;;7.15;2.35;;;;;;;;;;4966712;28;20723;-65
2024/01/28 11:33:09;;;;;;;8.35;2.58;;;;;;;;;;4980306;28;20708;-65
2024/01/28 11:35:35;;;;;;;7.85;2.65;;;;;;;;;;4978200;28;20029;-65
2024/01/28 11:38:05;;;;;;;5.88;2.47;;;;;;;;;;4980203;28;20037;-65
2024/01/28 11:40:35;;;;;;;11.65;3.35;;;;;;;;;;4978274;28;20675;-65
2024/01/28 11:43:01;;;;;;;7.80;2.70;;;;;;;;;;4979135;28;20154;-65
2024/01/28 11:45:29;;;;;;;6.75;2.45;;;;;;;;;;4978600;28;20034;-65
2024/01/28 11:47:55;;;;;;;7.15;2.42;;;;;;;;;;4977574;28;20034;-65
2024/01/28 11:50:21;;;;;;;9.43;2.65;;;;;;;;;;4979614;28;20041;-65
2024/01/28 11:52:47;;;;;;;7.72;2.10;;;;;;;;;;4977061;28;20045;-65
2024/01/28 11:55:14;;;;;;;9.18;2.72;;;;;;;;;;4979631;28;20035;-65
2024/01/28 11:57:41;;;;;;;8.82;2.88;;;;;;;;;;4978403;28;20022;-65
2024/01/28 12:00:09;;;;;;;6.82;2.47;;;;;;;;;;4978148;28;20057;-65
2024/01/28 12:02:36;;;;;;;7.22;2.53;;;;;;;;;;4977810;28;21371;-64
2024/01/28 12:05:03;;;;;;;6.47;2.50;;;;;;;;;;4978330;28;20504;-64
2024/01/28 12:07:33;;;;;;;7.50;2.13;;;;;;;;;;4977509;28;20057;-65
2024/01/28 12:10:05;;;;;;;6.28;2.20;;;;;;;;;;4979852;28;20029;-65
2024/01/28 12:12:34;;;;;;;6.70;2.33;;;;;;;;;;4978484;28;20055;-65
2024/01/28 12:15:00;;;;;;;5.68;2.25;;;;;;;;;;4979153;28;20026;-65
2024/01/28 12:17:26;;;;;;;8.13;2.70;;;;;;;;;;4977402;28;20026;-65
2024/01/28 12:19:53;;;;;;;7.88;2.50;;;;;;;;;;4978752;28;20176;-65
2024/01/28 12:22:19;;;;;;;8.45;2.70;;;;;;;;;;4977542;28;20045;-65
2024/01/28 12:24:48;;;;;;;5.97;2.28;;;;;;;;;;4978677;28;20160;-65
2024/01/28 12:27:14;;;;;;;7.82;3.05;;;;;;;;;;4977404;28;21929;-65
2024/01/28 12:29:43;;;;;;;8.10;2.38;;;;;;;;;;4979124;28;20100;-65
2024/01/28 12:32:10;;;;;;;7.03;2.28;;;;;;;;;;4977271;28;20057;-65
2024/01/28 12:34:36;;;;;;;8.70;2.17;;;;;;;;;;4978234;28;20580;-65
2024/01/28 12:37:03;;;;;;;5.80;2.33;;;;;;;;;;4961032;28;20027;-65
2024/01/28 12:39:29;;;;;;;5.78;1.75;;;;;;;;;;4977325;28;20026;-65
2024/01/28 12:41:55;;;;;;;8.55;2.33;;;;;;;;;;4977515;28;20128;-65
2024/01/28 12:44:21;;;;;;;5.38;2.03;;;;;;;;;;4975770;28;20046;-64
2024/01/28 12:46:47;;;;;;;6.18;2.42;;;;;;;;;;4979015;28;20489;-65
2024/01/28 12:49:14;;;;;;;4.88;1.70;;;;;;;;;;4975367;28;20033;-65
2024/01/28 12:51:40;;;;;;;7.63;2.40;;;;;;;;;;4977792;28;20037;-64
2024/01/28 12:54:07;;;;;;;8.48;2.03;;;;;;;;;;4974911;28;20877;-64
2024/01/28 12:56:33;;;;;;;7.80;2.35;;;;;;;;;;4977594;28;20030;-64
2024/01/28 12:58:59;;;;;;;5.82;2.20;;;;;;;;;;4959010;28;20029;-64
2024/01/28 13:01:25;;;;;;;8.23;2.35;;;;;;;;;;4976068;28;20039;-64
2024/01/28 13:03:51;;;;;;;6.90;2.08;;;;;;;;;;4977725;28;20431;-64
2024/01/28 13:06:17;;;;;;;7.10;1.90;;;;;;;;;;4977212;28;20041;-64
2024/01/28 13:08:43;;;;;;;7.18;2.72;;;;;;;;;;4978246;28;20041;-64
2024/01/28 13:11:09;;;;;;;6.00;1.90;;;;;;;;;;4977686;28;20037;-64
2024/01/28 13:13:36;;;;;;;7.32;2.30;;;;;;;;;;4978625;28;20800;-64
2024/01/28 13:16:02;;;;;;;4.88;1.85;;;;;;;;;;4976903;28;20054;-64
2024/01/28 13:18:29;;;;;;;6.00;2.30;;;;;;;;;;4978334;28;20111;-64
2024/01/28 13:20:55;;;;;;;7.35;2.53;;;;;;;;;;4978592;28;20034;-64
2024/01/28 13:23:21;;;;;;;7.18;2.20;;;;;;;;;;4977579;28;20054;-64
2024/01/28 13:25:47;;;;;;;4.43;1.88;;;;;;;;;;4977601;28;20034;-64
2024/01/28 13:28:13;;;;;;;7.57;2.08;;;;;;;;;;4968254;28;20046;-64
2024/01/28 13:30:39;;;;;;;6.90;2.67;;;;;;;;;;4955579;28;20481;-64
2024/01/28 13:33:05;;;;;;;15.57;3.05;;;;;;;;;;4962622;28;20449;-64
2024/01/28 13:35:32;;;;;;;6.90;2.55;;;;;;;;;;4962731;28;20402;-64
2024/01/28 13:37:59;;;;;;;10.65;2.92;;;;;;;;;;4962943;28;20042;-64
2024/01/28 13:40:25;;;;;;;8.63;2.22;;;;;;;;;;4962242;28;20034;-64
2024/01/28 13:42:51;;;;;;;7.93;2.20;;;;;;;;;;4963123;28;20038;-64
2024/01/28 13:45:17;;;;;;;9.77;2.17;;;;;;;;;;4962650;28;20145;-64
2024/01/28 13:47:44;;;;;;;7.70;2.17;;;;;;;;;;4962417;28;20171;-64
2024/01/28 13:50:10;;;;;;;6.38;2.20;;;;;;;;;;4961781;28;20064;-64
2024/01/28 13:52:36;;;;;;;7.38;2.17;;;;;;;;;;4962720;28;20109;-64
2024/01/28 13:55:02;;;;;;;6.30;2.35;;;;;;;;;;4961898;28;20029;-64
2024/01/28 13:57:29;;;;;;;5.53;2.15;;;;;;;;;;4962273;28;20541;-64
2024/01/28 13:59:55;;;;;;;7.13;2.10;;;;;;;;;;4962601;28;20038;-64
2024/01/28 14:02:21;;;;;;;6.57;2.25;;;;;;;;;;4962546;28;20042;-64
2024/01/28 14:04:47;;;;;;;7.40;2.33;;;;;;;;;;4962552;28;20026;-64
2024/01/28 14:07:13;;;;;;;12.27;2.65;;;;;;;;;;4961648;28;20038;-64
2024/01/28 14:09:39;;;;;;;8.10;2.25;;;;;;;;;;4962550;28;20042;-64
2024/01/28 14:12:06;;;;;;;5.18;1.75;;;;;;;;;;4961200;28;20170;-64
2024/01/28 14:14:32;;;;;;;9.10;2.55;;;;;;;;;;4962389;28;20076;-64
2024/01/28 14:16:58;;;;;;;6.32;2.33;;;;;;;;;;4961385;28;20873;-64
2024/01/28 14:19:25;;;;;;;5.68;1.88;;;;;;;;;;4962247;28;20039;-64
2024/01/28 14:21:51;;;;;;;5.72;2.22;;;;;;;;;;4961864;28;20034;-64
2024/01/28 14:24:17;;;;;;;6.57;2.10;;;;;;;;;;4962152;28;20029;-64
2024/01/28 14:26:43;;;;;;;6.07;1.90;;;;;;;;;;4962000;28;20774;-64
2024/01/28 14:29:10;;;;;;;6.72;2.10;;;;;;;;;;4957441;28;20051;-64